createdAt,value
2019-03-21T00:03:46.799Z,5.10
2019-03-21T00:07:51.170Z,3.93
2019-03-21T00:11:58.011Z,3.47
2019-03-21T00:16:02.336Z,2.87
2019-03-21T00:20:09.127Z,3.27
2019-03-21T00:24:13.620Z,2.37
2019-03-21T00:28:18.259Z,4.90
2019-03-21T00:32:23.333Z,3.80
2019-03-21T00:36:27.772Z,2.73
2019-03-21T00:40:33.397Z,3.53
2019-03-21T00:44:38.859Z,3.83
2019-03-21T00:48:43.401Z,4.37
2019-03-21T00:52:48.586Z,3.83
2019-03-21T00:56:53.067Z,3.27
2019-03-21T01:00:57.710Z,2.53
2019-03-21T01:05:02.156Z,5.17
2019-03-21T01:09:07.477Z,3.10
2019-03-21T01:13:12.027Z,3.83
2019-03-21T01:17:16.616Z,3.83
2019-03-21T01:21:20.994Z,3.27
2019-03-21T01:25:28.279Z,4.03
2019-03-21T01:29:32.665Z,3.90
2019-03-21T01:33:37.026Z,4.97
2019-03-21T01:37:41.339Z,4.00
2019-03-21T01:41:45.770Z,4.10
2019-03-21T01:45:50.052Z,4.70
2019-03-21T01:49:54.420Z,5.57
2019-03-21T01:53:58.764Z,6.27
2019-03-21T01:58:03.336Z,5.37
2019-03-21T02:02:08.700Z,6.13
2019-03-21T02:06:13.025Z,4.97
2019-03-21T02:10:17.337Z,4.73
2019-03-21T02:14:21.707Z,5.50
2019-03-21T02:18:26.080Z,4.80
2019-03-21T02:22:30.383Z,4.90
2019-03-21T02:26:35.726Z,4.67
2019-03-21T02:30:40.209Z,6.37
2019-03-21T02:34:44.369Z,5.27
2019-03-21T02:38:48.616Z,8.87
2019-03-21T02:42:52.991Z,7.30
2019-03-21T02:46:57.383Z,6.80
2019-03-21T02:51:01.816Z,6.60
2019-03-21T02:55:06.091Z,7.93
2019-03-21T02:59:10.363Z,7.80
2019-03-21T03:03:14.653Z,7.03
2019-03-21T03:07:19.185Z,4.93
2019-03-21T03:11:23.659Z,7.07
2019-03-21T03:15:29.561Z,5.93
2019-03-21T03:19:34.965Z,6.67
2019-03-21T03:23:39.226Z,5.37
2019-03-21T03:27:43.923Z,5.27
2019-03-21T03:31:48.082Z,5.00
2019-03-21T03:35:52.424Z,5.03
2019-03-21T03:39:56.637Z,4.97
2019-03-21T03:44:01.058Z,4.83
2019-03-21T03:48:05.318Z,6.13
2019-03-21T03:52:09.736Z,7.10
2019-03-21T03:56:14.097Z,5.50
2019-03-21T04:04:45.504Z,5.27
2019-03-21T04:08:49.902Z,5.23
2019-03-21T04:12:54.247Z,5.53
2019-03-21T04:16:58.559Z,6.53
2019-03-21T04:21:04.983Z,6.93
2019-03-21T04:25:10.005Z,5.37
2019-03-21T04:29:14.332Z,6.77
2019-03-21T04:33:18.601Z,5.37
2019-03-21T04:37:22.823Z,5.40
2019-03-21T04:41:27.287Z,5.70
2019-03-21T04:45:31.535Z,5.43
2019-03-21T04:49:35.791Z,5.67
2019-03-21T04:53:39.947Z,4.63
2019-03-21T04:57:44.211Z,4.07
2019-03-21T05:01:48.622Z,3.70
2019-03-21T05:05:53.075Z,4.20
2019-03-21T05:09:57.518Z,5.70
2019-03-21T05:14:01.756Z,6.93
2019-03-21T05:18:07.694Z,3.60
2019-03-21T05:22:12.018Z,4.53
2019-03-21T05:26:16.338Z,12.03
2019-03-21T05:30:22.427Z,11.27
2019-03-21T05:34:26.725Z,9.03
2019-03-21T05:38:31.510Z,7.97
2019-03-21T05:42:35.814Z,7.30
2019-03-21T05:46:40.100Z,8.33
2019-03-21T05:50:44.400Z,5.90
2019-03-21T05:54:48.770Z,7.80
2019-03-21T05:58:53.125Z,5.43
2019-03-21T06:02:57.593Z,6.27
2019-03-21T06:07:13.237Z,5.90
2019-03-21T06:11:17.535Z,8.30
2019-03-21T06:15:23.253Z,5.47
2019-03-21T06:19:30.121Z,6.93
2019-03-21T06:23:53.555Z,5.47
2019-03-21T06:27:57.884Z,7.20
2019-03-21T06:32:02.212Z,7.60
2019-03-21T06:36:06.505Z,6.37
2019-03-21T06:40:10.950Z,7.37
2019-03-21T06:44:15.220Z,6.10
2019-03-21T06:48:19.468Z,4.73
2019-03-21T06:52:23.800Z,5.43
2019-03-21T06:56:28.042Z,8.30
2019-03-21T07:00:32.616Z,10.40
2019-03-21T07:04:36.860Z,7.43
2019-03-21T07:08:41.160Z,7.50
2019-03-21T07:12:46.689Z,5.40
2019-03-21T07:17:00.092Z,6.80
2019-03-21T07:20:57.418Z,7.83
2019-03-21T07:25:01.815Z,6.80
2019-03-21T07:29:06.097Z,6.10
2019-03-21T07:33:11.158Z,5.23
2019-03-21T07:37:15.596Z,5.23
2019-03-21T07:41:20.087Z,5.20
2019-03-21T07:45:24.570Z,8.03
2019-03-21T07:49:29.042Z,6.30
2019-03-21T07:53:33.712Z,6.87
2019-03-21T07:57:38.092Z,5.67
2019-03-21T08:01:42.541Z,6.13
2019-03-21T08:05:48.059Z,7.33
2019-03-21T08:09:52.455Z,4.07
2019-03-21T08:13:57.145Z,5.90
2019-03-21T08:18:01.475Z,5.33
2019-03-21T08:22:05.813Z,5.30
2019-03-21T08:26:10.260Z,6.33
2019-03-21T08:30:25.468Z,5.80
2019-03-21T08:34:30.137Z,6.37
2019-03-21T08:38:34.458Z,6.53
2019-03-21T08:42:38.913Z,5.80
2019-03-21T08:46:43.360Z,6.43
2019-03-21T08:50:47.848Z,6.50
2019-03-21T08:54:53.384Z,6.47
2019-03-21T08:58:58.626Z,6.07
2019-03-21T09:03:03.173Z,5.97
2019-03-21T09:07:07.725Z,4.45
2019-03-21T09:11:12.169Z,5.50
2019-03-21T09:15:16.609Z,6.72
2019-03-21T09:19:21.367Z,5.47
2019-03-21T09:23:25.874Z,4.25
2019-03-21T09:27:30.254Z,3.65
2019-03-21T09:31:35.627Z,4.40
2019-03-21T09:35:40.163Z,4.85
2019-03-21T09:39:44.609Z,3.30
2019-03-21T09:43:49.002Z,5.72
2019-03-21T09:47:53.298Z,2.85
2019-03-21T09:51:58.309Z,5.62
2019-03-21T09:56:02.827Z,3.77
2019-03-21T10:00:08.307Z,5.40
2019-03-21T10:04:12.777Z,4.80
2019-03-21T10:12:34.001Z,5.05
2019-03-21T10:16:38.484Z,5.65
2019-03-21T10:20:42.761Z,7.10
2019-03-21T10:24:47.097Z,4.95
2019-03-21T10:28:51.411Z,7.05
2019-03-21T10:32:56.762Z,5.80
2019-03-21T10:37:01.173Z,4.70
2019-03-21T10:41:05.692Z,6.92
2019-03-21T10:45:10.186Z,5.85
2019-03-21T10:49:14.573Z,7.08
2019-03-21T10:53:19.013Z,7.33
2019-03-21T10:57:23.478Z,5.17
2019-03-21T11:01:27.933Z,5.58
2019-03-21T11:05:33.146Z,4.78
2019-03-21T11:09:37.628Z,6.62
2019-03-21T11:13:42.021Z,4.37
2019-03-21T11:17:46.529Z,6.97
2019-03-21T11:21:50.759Z,5.97
2019-03-21T11:25:55.241Z,4.92
2019-03-21T11:29:59.702Z,5.97
2019-03-21T11:34:04.147Z,4.80
2019-03-21T11:38:08.755Z,6.25
2019-03-21T11:42:13.190Z,5.58
2019-03-21T11:46:17.598Z,3.37
2019-03-21T11:50:22.164Z,6.00
2019-03-21T11:54:26.629Z,5.10
2019-03-21T11:58:30.957Z,5.45
2019-03-21T12:02:35.288Z,4.72
2019-03-21T12:06:39.703Z,4.83
2019-03-21T12:10:44.341Z,3.67
2019-03-21T12:14:48.731Z,4.53
2019-03-21T12:18:53.139Z,5.12
2019-03-21T12:22:57.679Z,5.25
2019-03-21T12:27:02.092Z,3.85
2019-03-21T12:31:06.437Z,3.92
2019-03-21T12:35:10.857Z,4.25
2019-03-21T12:39:15.136Z,3.20
2019-03-21T12:43:20.464Z,4.03
2019-03-21T12:47:31.134Z,4.50
2019-03-21T12:51:30.786Z,4.83
2019-03-21T12:55:35.161Z,3.98
2019-03-21T12:59:39.526Z,3.85
2019-03-21T13:03:43.918Z,5.90
2019-03-21T13:07:48.338Z,4.67
2019-03-21T13:11:52.683Z,3.40
2019-03-21T13:15:57.178Z,2.60
2019-03-21T13:20:01.602Z,3.47
2019-03-21T13:24:07.202Z,2.67
2019-03-21T13:28:11.567Z,2.90
2019-03-21T13:32:15.931Z,3.10
2019-03-21T13:36:20.407Z,3.33
2019-03-21T13:40:24.824Z,7.00
2019-03-21T13:44:29.196Z,2.83
2019-03-21T13:48:33.639Z,2.83
2019-03-21T13:52:38.230Z,2.77
2019-03-21T13:56:42.600Z,4.30
2019-03-21T14:00:47.968Z,2.67
2019-03-21T14:04:52.428Z,2.72
2019-03-21T14:08:56.952Z,3.40
2019-03-21T14:13:01.388Z,5.00
2019-03-21T14:17:06.165Z,4.83
2019-03-21T14:21:10.685Z,3.37
2019-03-21T14:25:15.255Z,3.22
2019-03-21T14:29:19.668Z,4.28
2019-03-21T14:33:25.123Z,4.22
2019-03-21T14:37:29.438Z,3.62
2019-03-21T14:41:34.808Z,2.67
2019-03-21T14:45:39.183Z,2.58
2019-03-21T14:49:43.673Z,1.87
2019-03-21T14:53:48.157Z,2.22
2019-03-21T14:57:52.746Z,2.77
2019-03-21T15:01:57.306Z,2.72
2019-03-21T15:06:01.565Z,4.67
2019-03-21T15:10:06.988Z,5.03
2019-03-21T15:14:11.548Z,6.75
2019-03-21T15:18:15.977Z,1.62
2019-03-21T15:22:20.369Z,2.20
2019-03-21T15:26:24.823Z,3.80
2019-03-21T15:30:29.178Z,2.72
2019-03-21T15:34:33.685Z,2.90
2019-03-21T15:38:39.183Z,2.67
2019-03-21T15:42:43.697Z,3.33
2019-03-21T15:46:48.178Z,3.77
2019-03-21T15:51:03.835Z,4.97
2019-03-21T15:54:58.826Z,2.83
2019-03-21T15:59:03.435Z,7.05
2019-03-21T16:03:07.964Z,2.83
2019-03-21T16:07:12.374Z,3.20
2019-03-21T16:11:16.817Z,2.05
2019-03-21T16:15:21.279Z,2.35
2019-03-21T16:19:25.889Z,4.47
2019-03-21T16:23:30.600Z,4.20
2019-03-21T16:27:35.248Z,2.20
2019-03-21T16:31:39.522Z,2.47
2019-03-21T16:35:44.035Z,1.85
2019-03-21T16:39:48.397Z,2.20
2019-03-21T16:43:52.813Z,6.72
2019-03-21T16:47:57.448Z,3.83
2019-03-21T16:52:02.026Z,2.30
2019-03-21T16:56:07.451Z,2.92
2019-03-21T17:00:12.149Z,1.65
2019-03-21T17:04:16.643Z,2.10
2019-03-21T17:08:21.240Z,5.90
2019-03-21T17:12:25.749Z,6.10
2019-03-21T17:16:30.229Z,4.15
2019-03-21T17:20:34.617Z,3.15
2019-03-21T17:24:39.237Z,5.25
2019-03-21T17:28:43.744Z,5.20
2019-03-21T17:32:48.665Z,2.00
2019-03-21T17:36:53.009Z,4.37
2019-03-21T17:40:57.205Z,5.27
2019-03-21T17:45:01.597Z,3.62
2019-03-21T17:49:05.996Z,5.53
2019-03-21T17:53:10.191Z,5.00
2019-03-21T17:57:14.391Z,5.47
2019-03-21T18:01:18.900Z,4.77
2019-03-21T18:05:23.323Z,3.53
2019-03-21T18:09:28.076Z,4.30
2019-03-21T18:13:32.511Z,3.67
2019-03-21T18:17:36.763Z,11.40
2019-03-21T18:21:40.999Z,12.93
2019-03-21T18:25:45.384Z,13.33
2019-03-21T18:29:49.702Z,5.50
2019-03-21T18:33:54.067Z,6.10
2019-03-21T18:37:58.427Z,3.50
2019-03-21T18:42:02.834Z,5.13
2019-03-21T18:46:07.058Z,5.00
2019-03-21T18:50:11.573Z,7.00
2019-03-21T18:54:16.058Z,6.97
2019-03-21T18:58:20.397Z,7.60
2019-03-21T19:02:24.770Z,7.00
2019-03-21T19:06:29.185Z,6.63
2019-03-21T19:10:33.611Z,5.20
2019-03-21T19:14:37.940Z,7.57
2019-03-21T19:18:42.260Z,6.27
2019-03-21T19:22:46.672Z,8.57
2019-03-21T19:26:51.098Z,7.50
2019-03-21T19:30:55.499Z,8.47
2019-03-21T19:35:00.828Z,6.40
2019-03-21T19:39:06.869Z,5.50
2019-03-21T19:43:11.200Z,4.87
2019-03-21T19:47:24.298Z,5.63
2019-03-21T19:51:22.673Z,6.07
2019-03-21T19:55:31.113Z,5.77
2019-03-21T19:59:33.515Z,7.50
2019-03-21T20:03:38.927Z,6.97
2019-03-21T20:07:43.535Z,9.00
2019-03-21T20:11:48.055Z,6.30
2019-03-21T20:15:52.774Z,5.30
2019-03-21T20:19:57.059Z,6.10
2019-03-21T20:24:02.615Z,6.13
2019-03-21T20:28:07.078Z,4.43
2019-03-21T20:32:20.157Z,6.73
2019-03-21T20:36:17.440Z,4.80
2019-03-21T20:40:21.814Z,6.20
2019-03-21T20:44:26.136Z,5.43
2019-03-21T20:48:30.660Z,4.07
2019-03-21T20:52:35.103Z,5.63
2019-03-21T20:56:39.449Z,4.57
2019-03-21T21:00:43.944Z,4.33
2019-03-21T21:04:48.675Z,5.30
2019-03-21T21:08:53.208Z,6.43
2019-03-21T21:12:57.589Z,5.77
2019-03-21T21:17:01.962Z,5.43
2019-03-21T21:21:06.288Z,7.47
2019-03-21T21:25:11.388Z,5.63
2019-03-21T21:29:15.687Z,7.10
2019-03-21T21:33:20.037Z,6.10
2019-03-21T21:37:25.338Z,7.03
2019-03-21T21:41:29.637Z,8.00
2019-03-21T21:45:34.213Z,8.03
2019-03-21T21:49:38.522Z,7.90
2019-03-21T21:53:42.871Z,9.37
2019-03-21T21:57:47.188Z,9.90
2019-03-21T22:01:51.527Z,14.00
2019-03-21T22:05:55.786Z,17.20
2019-03-21T22:10:00.186Z,15.23
2019-03-21T22:14:04.728Z,14.67
2019-03-21T22:18:09.259Z,13.80
2019-03-21T22:22:13.660Z,16.03
2019-03-21T22:26:28.931Z,18.23
2019-03-21T22:30:23.979Z,16.67
2019-03-21T22:34:30.861Z,15.53
2019-03-21T22:38:35.105Z,15.00
2019-03-21T22:42:40.667Z,15.53
2019-03-21T22:46:44.953Z,17.10
2019-03-21T22:50:49.256Z,13.43
2019-03-21T22:54:53.567Z,17.63
2019-03-21T22:58:57.945Z,14.37
2019-03-21T23:03:02.284Z,13.20
2019-03-21T23:07:06.579Z,12.43
2019-03-21T23:11:11.153Z,12.60
2019-03-21T23:15:15.644Z,15.77
2019-03-21T23:19:19.968Z,14.17
2019-03-21T23:23:24.422Z,14.17
2019-03-21T23:27:28.928Z,11.17
2019-03-21T23:31:33.378Z,16.17
2019-03-21T23:35:37.823Z,17.60
2019-03-21T23:39:42.163Z,17.10
2019-03-21T23:43:46.519Z,19.87
2019-03-21T23:47:50.895Z,22.50
2019-03-21T23:51:55.217Z,16.13
2019-03-21T23:55:59.543Z,14.87
